Terminal Aerodrome Forecast
Issued by NWS

Home | Current Version | Previous Version | Text Only | Print | Product List | Glossary On
Versions: 1 2 3 4 5 6 7 8 9 10 11 12 13
842
FTUS46 KLOX 010532
TAFPRB
TAF
KPRB 010532Z 0106/0206 31015KT P6SM SKC
     FM010900 30006KT P6SM SKC
     FM012200 22015KT P6SM SKC
     FM020100 30010KT P6SM SKC=

USA.gov is the U.S. government's official web portal to all federal, state and local government web resources and services.